Sandrock, Alabama
Current Conditions -  °F | °C
As of 10:35 AM on Sunday 21 Dec 2014 (Local Time) from K4A9 Reporting Station
Overcast Overcast  
Wind Chill: 46°   Ceiling: 3300
Heat Index: 46°   Visibility: 10mi
Dew Point: 37°   Wind: 3mph
Humidity: 71%   Direction: 40°NE
Pressure: 30.18"   Gusts: NA
Location:  34.1831°N, 85.7726°W
Report Text: K4A9 211635Z AUTO 04003KT 10SM SCT018 OVC033 08/03 A3018 RMK AO2
Loading
Personal Weather Stations






























Interactive Weather Map New forecast layout! Learn more

10-Day Weather Forecast

Advertisements
Track Severe Weather on mobile